createdAt,value
2023-09-11T00:02:12.896Z,56.00
2023-09-11T00:05:15.297Z,56.15
2023-09-11T00:08:17.466Z,55.61
2023-09-11T00:11:20.232Z,55.57
2023-09-11T00:14:22.479Z,55.57
2023-09-11T00:17:25.117Z,55.81
2023-09-11T00:20:27.387Z,55.54
2023-09-11T00:23:30.041Z,55.63
2023-09-11T00:26:32.343Z,55.82
2023-09-11T00:29:35.447Z,55.91
2023-09-11T00:32:37.861Z,55.98
2023-09-11T00:35:43.840Z,56.21
2023-09-11T00:38:48.972Z,56.40
2023-09-11T00:41:51.670Z,56.49
2023-09-11T00:44:55.157Z,56.84
2023-09-11T00:47:57.961Z,56.87
2023-09-11T00:51:00.992Z,56.93
2023-09-11T00:54:03.678Z,57.06
2023-09-11T00:57:06.347Z,57.12
2023-09-11T01:00:09.597Z,57.23
2023-09-11T01:03:14.703Z,57.27
2023-09-11T01:06:17.229Z,57.31
2023-09-11T01:09:19.498Z,57.29
2023-09-11T01:12:21.914Z,57.52
2023-09-11T01:15:28.628Z,57.44
2023-09-11T01:18:49.506Z,57.61
2023-09-11T01:21:51.588Z,57.84
2023-09-11T01:25:02.822Z,58.10
2023-09-11T01:28:19.183Z,58.22
2023-09-11T01:31:22.113Z,58.85
2023-09-11T01:34:24.197Z,58.79
2023-09-11T01:37:27.262Z,59.35
2023-09-11T01:40:30.345Z,59.41
2023-09-11T01:43:36.537Z,59.44
2023-09-11T01:46:38.747Z,59.69
2023-09-11T01:49:42.248Z,59.20
2023-09-11T01:52:45.272Z,59.94
2023-09-11T01:55:48.004Z,59.94
2023-09-11T01:58:50.458Z,60.12
2023-09-11T02:01:52.961Z,60.19
2023-09-11T02:04:55.378Z,60.49
2023-09-11T02:07:58.182Z,60.95
2023-09-11T02:11:00.580Z,60.85
2023-09-11T02:14:02.721Z,61.01
2023-09-11T02:17:05.186Z,61.06
2023-09-11T02:20:07.628Z,61.24
2023-09-11T02:23:10.042Z,61.44
2023-09-11T02:26:12.140Z,61.42
2023-09-11T02:29:14.692Z,61.52
2023-09-11T02:32:17.185Z,61.47
2023-09-11T02:35:19.624Z,61.65
2023-09-11T02:38:22.141Z,61.56
2023-09-11T02:41:24.625Z,61.49
2023-09-11T02:44:26.797Z,61.92
2023-09-11T02:47:29.357Z,61.66
2023-09-11T02:50:31.548Z,61.47
2023-09-11T02:53:33.998Z,61.29
2023-09-11T02:56:39.323Z,61.07
2023-09-11T02:59:42.023Z,60.80
2023-09-11T03:02:44.288Z,60.67
2023-09-11T03:05:46.848Z,60.68
2023-09-11T03:08:49.177Z,60.82
2023-09-11T03:11:51.708Z,60.82
2023-09-11T03:14:53.979Z,60.84
2023-09-11T03:17:56.582Z,60.67
2023-09-11T03:20:59.067Z,60.71
2023-09-11T03:24:01.630Z,60.59
2023-09-11T03:27:03.889Z,60.71
2023-09-11T03:30:06.688Z,60.77
2023-09-11T03:33:09.186Z,60.98
2023-09-11T03:36:18.449Z,61.38
2023-09-11T03:39:21.138Z,61.53
2023-09-11T03:42:23.813Z,61.82
2023-09-11T03:45:27.877Z,62.15
2023-09-11T03:48:30.588Z,62.43
2023-09-11T03:51:32.991Z,62.62
2023-09-11T03:54:35.463Z,62.95
2023-09-11T03:57:37.772Z,63.52
2023-09-11T04:00:40.556Z,63.73
2023-09-11T04:03:43.340Z,64.07
2023-09-11T04:06:46.835Z,64.16
2023-09-11T04:09:49.309Z,64.19
2023-09-11T04:12:51.567Z,64.17
2023-09-11T04:15:54.269Z,64.08
2023-09-11T04:18:56.550Z,63.92
2023-09-11T04:21:58.958Z,63.64
2023-09-11T04:25:01.271Z,63.25
2023-09-11T04:28:04.117Z,62.94
2023-09-11T04:31:06.282Z,62.74
2023-09-11T04:34:09.156Z,62.74
2023-09-11T04:37:12.058Z,62.73
2023-09-11T04:40:14.665Z,62.79
2023-09-11T04:43:17.284Z,62.71
2023-09-11T04:46:20.009Z,63.05
2023-09-11T04:49:22.444Z,63.12
2023-09-11T04:52:25.365Z,63.51
2023-09-11T04:55:28.021Z,64.00
2023-09-11T04:58:30.552Z,63.93
2023-09-11T05:01:33.102Z,63.96
2023-09-11T05:04:35.944Z,63.47
2023-09-11T05:07:38.374Z,63.51
2023-09-11T05:10:42.870Z,63.11
2023-09-11T05:13:45.733Z,63.62
2023-09-11T05:16:48.915Z,63.04
2023-09-11T05:19:51.190Z,62.81
2023-09-11T05:22:53.810Z,62.80
2023-09-11T05:25:56.017Z,62.94
2023-09-11T05:28:58.418Z,62.95
2023-09-11T05:32:00.580Z,62.76
2023-09-11T05:35:03.875Z,62.61
2023-09-11T05:38:06.059Z,62.54
2023-09-11T05:41:08.493Z,62.27
2023-09-11T05:44:10.587Z,61.99
2023-09-11T05:47:12.966Z,61.63
2023-09-11T05:50:15.889Z,61.54
2023-09-11T05:53:18.373Z,60.96
2023-09-11T05:56:20.637Z,60.21
2023-09-11T05:59:23.166Z,59.86
2023-09-11T06:02:25.318Z,59.94
2023-09-11T06:05:28.033Z,59.70
2023-09-11T06:08:30.381Z,59.58
2023-09-11T06:11:33.135Z,59.35
2023-09-11T06:14:39.229Z,59.32
2023-09-11T06:17:45.642Z,59.07
2023-09-11T06:20:48.325Z,58.90
2023-09-11T06:23:50.886Z,58.48
2023-09-11T06:27:02.982Z,57.70
2023-09-11T06:30:06.862Z,57.57
2023-09-11T06:33:09.102Z,57.40
2023-09-11T06:36:11.554Z,57.09
2023-09-11T06:39:13.758Z,56.93
2023-09-11T06:42:19.728Z,56.48
2023-09-11T06:45:22.615Z,56.28
2023-09-11T06:48:26.394Z,56.31
2023-09-11T06:51:28.746Z,55.87
2023-09-11T06:54:31.361Z,55.82
2023-09-11T06:57:33.765Z,55.82
2023-09-11T07:00:36.245Z,55.25
2023-09-11T07:03:38.500Z,55.00
2023-09-11T07:06:41.771Z,54.58
2023-09-11T07:09:44.084Z,53.69
2023-09-11T07:12:47.047Z,53.43
2023-09-11T07:15:56.309Z,53.01
2023-09-11T07:18:59.623Z,53.30
2023-09-11T07:22:01.783Z,52.14
2023-09-11T07:25:06.417Z,51.44
2023-09-11T07:28:08.827Z,50.38
2023-09-11T07:31:11.303Z,50.10
2023-09-11T07:34:15.712Z,49.04
2023-09-11T07:37:18.389Z,48.39
2023-09-11T07:40:21.022Z,47.58
2023-09-11T07:43:23.484Z,46.38
2023-09-11T07:46:26.012Z,46.46
2023-09-11T07:49:29.707Z,45.20
2023-09-11T07:52:31.912Z,44.28
2023-09-11T07:55:38.398Z,43.57
2023-09-11T07:58:41.239Z,41.64
2023-09-11T08:01:44.041Z,40.96
2023-09-11T08:04:46.587Z,41.31
2023-09-11T08:07:51.804Z,41.00
2023-09-11T08:10:56.273Z,40.89
2023-09-11T08:14:00.328Z,39.10
2023-09-11T08:17:02.883Z,38.11
2023-09-11T08:20:05.335Z,38.18
2023-09-11T08:23:07.800Z,37.10
2023-09-11T08:26:10.164Z,36.90
2023-09-11T08:29:16.802Z,36.36
2023-09-11T08:32:18.913Z,36.08
2023-09-11T08:35:21.309Z,36.17
2023-09-11T08:38:23.501Z,34.24
2023-09-11T08:41:26.130Z,33.52
2023-09-11T08:44:28.231Z,34.12
2023-09-11T08:47:31.736Z,33.49
2023-09-11T08:50:37.052Z,33.72
2023-09-11T08:53:40.322Z,32.28
2023-09-11T08:56:42.640Z,32.09
2023-09-11T08:59:45.817Z,32.68
2023-09-11T09:02:48.727Z,32.37
2023-09-11T09:05:51.539Z,32.30
2023-09-11T09:08:53.895Z,31.51
2023-09-11T09:11:56.465Z,30.87
2023-09-11T09:14:58.999Z,30.01
2023-09-11T09:18:01.542Z,29.38
2023-09-11T09:21:07.879Z,28.82
2023-09-11T09:24:15.804Z,29.04
2023-09-11T09:27:21.434Z,29.23
2023-09-11T09:30:24.942Z,28.42
2023-09-11T09:33:28.244Z,27.91
2023-09-11T09:36:34.313Z,28.43
2023-09-11T09:39:44.115Z,29.31
2023-09-11T09:42:46.537Z,28.56
2023-09-11T09:45:51.143Z,28.23
2023-09-11T09:48:53.708Z,27.69
2023-09-11T09:52:01.327Z,27.68
2023-09-11T09:55:09.924Z,27.84
2023-09-11T09:58:13.008Z,27.60
2023-09-11T10:01:17.073Z,28.11
2023-09-11T10:04:21.876Z,27.76
2023-09-11T10:07:40.157Z,27.78
2023-09-11T10:10:42.861Z,27.17
2023-09-11T10:13:45.444Z,27.52
2023-09-11T10:16:48.003Z,27.28
2023-09-11T10:19:51.059Z,26.88
2023-09-11T10:22:54.332Z,26.32
2023-09-11T10:25:59.830Z,26.25
2023-09-11T10:29:06.921Z,26.09
2023-09-11T10:32:11.255Z,26.19
2023-09-11T10:35:13.691Z,25.87
2023-09-11T10:38:16.557Z,25.98
2023-09-11T10:41:19.401Z,26.22
2023-09-11T10:44:21.736Z,25.57
2023-09-11T10:47:24.296Z,25.35
2023-09-11T10:50:39.333Z,25.44
2023-09-11T10:53:42.729Z,25.46
2023-09-11T10:56:45.584Z,26.09
2023-09-11T10:59:50.283Z,25.21
2023-09-11T11:02:53.787Z,24.99
2023-09-11T11:05:58.957Z,25.39
2023-09-11T11:09:01.552Z,25.09
2023-09-11T11:12:10.344Z,24.86
2023-09-11T11:15:25.906Z,25.40
2023-09-11T11:18:29.089Z,25.80
2023-09-11T11:21:40.973Z,25.72
2023-09-11T11:24:56.005Z,25.59
2023-09-11T11:28:02.448Z,25.35
2023-09-11T11:31:06.928Z,25.30
2023-09-11T11:34:11.005Z,25.61
2023-09-11T11:37:13.767Z,25.11
2023-09-11T11:40:16.042Z,25.23
2023-09-11T11:43:19.213Z,25.01
2023-09-11T11:46:26.903Z,24.96
2023-09-11T11:49:29.653Z,25.36
2023-09-11T11:52:31.777Z,25.37
2023-09-11T11:55:34.179Z,25.65
2023-09-11T11:58:36.361Z,25.33
2023-09-11T12:01:39.137Z,25.24
2023-09-11T12:04:49.865Z,25.38
2023-09-11T12:07:53.708Z,25.05
2023-09-11T12:10:56.198Z,25.56
2023-09-11T12:13:58.611Z,25.42
2023-09-11T12:17:01.270Z,25.32
2023-09-11T12:20:10.532Z,25.27
2023-09-11T12:23:13.841Z,25.35
2023-09-11T12:26:15.984Z,24.91
2023-09-11T12:29:19.240Z,24.62
2023-09-11T12:32:24.187Z,24.95
2023-09-11T12:35:32.634Z,25.14
2023-09-11T12:38:34.810Z,25.25
2023-09-11T12:41:37.269Z,25.22
2023-09-11T12:44:41.512Z,25.44
2023-09-11T12:47:44.106Z,25.48
2023-09-11T12:50:46.288Z,25.79
2023-09-11T12:53:49.234Z,25.59
2023-09-11T12:56:51.643Z,26.09
2023-09-11T12:59:54.799Z,26.25
2023-09-11T13:02:58.158Z,26.11
2023-09-11T13:06:01.197Z,26.28
2023-09-11T13:09:03.784Z,25.99
2023-09-11T13:12:06.279Z,26.26
2023-09-11T13:15:08.904Z,26.23
2023-09-11T13:18:11.475Z,25.99
2023-09-11T13:21:13.861Z,26.16
2023-09-11T13:24:16.383Z,26.21
2023-09-11T13:27:18.593Z,25.75
2023-09-11T13:30:21.183Z,25.39
2023-09-11T13:33:23.391Z,25.65
2023-09-11T13:36:25.945Z,26.00
2023-09-11T13:39:28.242Z,26.16
2023-09-11T13:42:30.864Z,26.03
2023-09-11T13:45:33.167Z,26.44
2023-09-11T13:48:38.557Z,26.38
2023-09-11T13:51:40.928Z,26.23
2023-09-11T13:54:45.706Z,26.21
2023-09-11T13:57:47.886Z,26.40
2023-09-11T14:00:50.377Z,26.56
2023-09-11T14:03:52.893Z,26.90
2023-09-11T14:06:55.117Z,27.02
2023-09-11T14:10:00.550Z,27.12
2023-09-11T14:13:02.692Z,27.16
2023-09-11T14:16:06.592Z,27.17
2023-09-11T14:19:18.050Z,27.38
2023-09-11T14:22:20.586Z,27.57
2023-09-11T14:25:22.767Z,27.36
2023-09-11T14:28:26.307Z,27.81
2023-09-11T14:31:29.206Z,27.73
2023-09-11T14:34:32.308Z,27.86
2023-09-11T14:37:37.184Z,28.11
2023-09-11T14:40:39.643Z,28.13
2023-09-11T14:43:41.931Z,28.25
2023-09-11T14:46:47.641Z,28.49
2023-09-11T14:49:50.917Z,28.43
2023-09-11T14:52:53.784Z,28.57
2023-09-11T14:55:56.607Z,28.74
2023-09-11T14:58:59.150Z,28.71
2023-09-11T15:02:02.160Z,28.88
2023-09-11T15:05:05.251Z,28.97
2023-09-11T15:08:08.532Z,29.17
2023-09-11T15:11:11.043Z,29.33
2023-09-11T15:14:13.199Z,29.44
2023-09-11T15:17:15.861Z,29.73
2023-09-11T15:20:18.369Z,30.25
2023-09-11T15:23:26.289Z,30.01
2023-09-11T15:26:28.738Z,30.17
2023-09-11T15:29:32.368Z,30.34
2023-09-11T15:32:34.735Z,30.42
2023-09-11T15:35:56.335Z,30.35
2023-09-11T15:39:00.336Z,30.91
2023-09-11T15:42:06.069Z,30.63
2023-09-11T15:45:08.802Z,30.62
2023-09-11T15:48:18.538Z,30.69
2023-09-11T15:51:21.006Z,30.67
2023-09-11T15:54:26.665Z,30.83
2023-09-11T15:57:28.848Z,31.04
2023-09-11T16:00:31.506Z,30.94
2023-09-11T16:03:37.144Z,30.99
2023-09-11T16:06:39.662Z,31.00
2023-09-11T16:09:45.036Z,31.70
2023-09-11T16:12:47.504Z,31.53
2023-09-11T16:15:51.089Z,31.58
2023-09-11T16:19:56.704Z,30.99
2023-09-11T16:23:02.799Z,30.99
2023-09-11T16:26:07.907Z,31.72
2023-09-11T16:29:10.914Z,31.90
2023-09-11T16:32:13.197Z,31.95
2023-09-11T16:35:15.748Z,32.14
2023-09-11T16:38:18.243Z,32.13
2023-09-11T16:41:20.749Z,36.92
2023-09-11T16:44:26.942Z,35.17
2023-09-11T16:47:29.755Z,36.40
2023-09-11T16:50:32.360Z,36.28
2023-09-11T16:53:34.853Z,35.55
2023-09-11T16:56:39.511Z,36.43
2023-09-11T16:59:45.774Z,35.83
2023-09-11T17:02:56.549Z,35.46
2023-09-11T17:06:00.467Z,36.34
2023-09-11T17:09:02.691Z,36.38
2023-09-11T17:12:05.732Z,36.08
2023-09-11T17:15:11.509Z,36.33
2023-09-11T17:18:17.343Z,36.24
2023-09-11T17:21:21.585Z,36.07
2023-09-11T17:24:27.863Z,35.99
2023-09-11T17:27:30.165Z,36.41
2023-09-11T17:30:32.834Z,36.83
2023-09-11T17:33:35.185Z,37.31
2023-09-11T17:36:37.747Z,37.64
2023-09-11T17:39:39.851Z,37.78
2023-09-11T17:42:42.516Z,37.30
2023-09-11T17:45:45.540Z,37.70
2023-09-11T17:48:48.056Z,37.91
2023-09-11T17:51:51.764Z,37.53
2023-09-11T17:54:54.331Z,37.74
2023-09-11T17:57:56.459Z,37.63
2023-09-11T18:00:58.911Z,37.80
2023-09-11T18:04:01.656Z,38.25
2023-09-11T18:07:04.502Z,38.93
2023-09-11T18:10:07.295Z,39.59
2023-09-11T18:13:10.247Z,39.85
2023-09-11T18:16:12.727Z,39.84
2023-09-11T18:19:15.172Z,41.20
2023-09-11T18:22:17.592Z,40.88
2023-09-11T18:25:21.650Z,41.93
2023-09-11T18:28:24.290Z,41.73
2023-09-11T18:31:26.433Z,41.62
2023-09-11T18:34:29.063Z,42.05
2023-09-11T18:37:31.275Z,42.20
2023-09-11T18:40:34.031Z,42.06
2023-09-11T18:43:41.394Z,42.39
2023-09-11T18:46:43.848Z,42.76
2023-09-11T18:49:47.624Z,42.46
2023-09-11T18:52:50.092Z,43.09
2023-09-11T18:55:53.796Z,42.87
2023-09-11T18:58:56.321Z,42.89
2023-09-11T19:02:02.809Z,43.16
2023-09-11T19:05:05.675Z,43.83
2023-09-11T19:08:07.911Z,43.65
2023-09-11T19:11:10.429Z,43.92
2023-09-11T19:14:12.722Z,44.11
2023-09-11T19:17:15.369Z,43.91
2023-09-11T19:20:17.861Z,44.33
2023-09-11T19:23:20.266Z,44.39
2023-09-11T19:26:23.740Z,44.42
2023-09-11T19:29:26.187Z,44.85
2023-09-11T19:32:28.339Z,45.05
2023-09-11T19:35:30.862Z,45.18
2023-09-11T19:38:33.025Z,45.44
2023-09-11T19:41:35.660Z,45.64
2023-09-11T19:44:38.295Z,45.66
2023-09-11T19:47:40.880Z,45.74
2023-09-11T19:50:44.256Z,46.02
2023-09-11T19:53:46.851Z,46.18
2023-09-11T19:56:50.003Z,46.26
2023-09-11T19:59:53.113Z,46.34
2023-09-11T20:02:55.458Z,46.78
2023-09-11T20:05:58.330Z,47.12
2023-09-11T20:09:00.863Z,47.13
2023-09-11T20:12:08.761Z,47.20
2023-09-11T20:15:11.020Z,47.15
2023-09-11T20:18:13.629Z,47.68
2023-09-11T20:21:16.172Z,47.28
2023-09-11T20:24:18.869Z,47.39
2023-09-11T20:27:21.383Z,47.55
2023-09-11T20:30:24.377Z,47.78
2023-09-11T20:33:26.714Z,47.72
2023-09-11T20:36:30.083Z,48.48
2023-09-11T20:39:32.367Z,48.35
2023-09-11T20:42:35.023Z,48.48
2023-09-11T20:45:37.247Z,48.66
2023-09-11T20:48:41.282Z,48.84
2023-09-11T20:51:43.611Z,49.01
2023-09-11T20:54:46.059Z,49.33
2023-09-11T20:57:49.275Z,49.83
2023-09-11T21:00:51.761Z,50.12
2023-09-11T21:03:54.215Z,50.06
2023-09-11T21:06:56.825Z,50.24
2023-09-11T21:09:58.995Z,50.29
2023-09-11T21:13:03.612Z,50.27
2023-09-11T21:16:05.977Z,50.23
2023-09-11T21:19:08.572Z,49.97
2023-09-11T21:22:10.720Z,50.10
2023-09-11T21:25:13.152Z,50.26
2023-09-11T21:28:15.232Z,50.42
2023-09-11T21:31:17.732Z,50.54
2023-09-11T21:34:20.231Z,50.71
2023-09-11T21:37:22.816Z,50.71
2023-09-11T21:40:24.984Z,50.99
2023-09-11T21:43:27.672Z,50.99
2023-09-11T21:46:29.920Z,51.10
2023-09-11T21:49:32.387Z,51.32
2023-09-11T21:52:34.492Z,51.33
2023-09-11T21:55:36.888Z,51.37
2023-09-11T21:58:39.054Z,51.46
2023-09-11T22:01:41.624Z,51.53
2023-09-11T22:04:44.071Z,51.57
2023-09-11T22:07:46.347Z,51.72
2023-09-11T22:10:48.899Z,51.88
2023-09-11T22:13:51.567Z,51.95
2023-09-11T22:16:54.111Z,52.06
2023-09-11T22:19:56.287Z,52.45
2023-09-11T22:22:58.656Z,52.67
2023-09-11T22:26:00.874Z,52.63
2023-09-11T22:29:03.240Z,52.84
2023-09-11T22:32:05.579Z,52.77
2023-09-11T22:35:08.173Z,52.80
2023-09-11T22:38:13.167Z,52.86
2023-09-11T22:41:15.596Z,52.89
2023-09-11T22:44:19.195Z,52.73
2023-09-11T22:47:22.093Z,52.67
2023-09-11T22:50:24.407Z,52.54
2023-09-11T22:53:27.711Z,52.53
2023-09-11T22:56:30.275Z,52.60
2023-09-11T22:59:32.910Z,52.70
2023-09-11T23:02:35.072Z,52.68
2023-09-11T23:05:38.188Z,52.90
2023-09-11T23:08:40.767Z,53.15
2023-09-11T23:11:43.374Z,53.16
2023-09-11T23:14:46.040Z,53.38
2023-09-11T23:17:48.477Z,53.26
2023-09-11T23:20:50.752Z,53.31
2023-09-11T23:23:53.197Z,53.33
2023-09-11T23:26:55.366Z,53.37
2023-09-11T23:29:57.849Z,53.42
2023-09-11T23:33:00.075Z,53.53
2023-09-11T23:36:02.824Z,53.37
2023-09-11T23:39:06.276Z,53.40
2023-09-11T23:42:09.408Z,53.86
2023-09-11T23:45:11.679Z,53.66
2023-09-11T23:48:14.267Z,53.53
2023-09-11T23:51:16.576Z,53.50
2023-09-11T23:54:19.104Z,53.65
2023-09-11T23:57:21.411Z,53.76
